Time;durP1;ratioP1;P1;durP2;ratioP2;P2;SDS_P1;SDS_P2;PMS_P1;PMS_P2;Temp;Humidity;BMP_temperature;BMP_pressure;BME280_temperature;BME280_humidity;BME280_pressure;Samples;Min_cycle;Max_cycle;Signal;HPM_P1;HPM_P2
2023/12/10 00:00:49;;;;;;;28.40;13.55;;;;;;;;;;5791133;28;20043;-79
2023/12/10 00:03:40;;;;;;;23.65;10.25;;;;;;;;;;5777573;28;20472;-79
2023/12/10 00:06:31;;;;;;;20.63;8.52;;;;;;;;;;5777265;28;20505;-79
2023/12/10 00:09:22;;;;;;;22.65;9.20;;;;;;;;;;5775662;28;20043;-79
2023/12/10 00:12:13;;;;;;;22.30;8.65;;;;;;;;;;5787829;28;20074;-79
2023/12/10 00:15:04;;;;;;;21.15;6.53;;;;;;;;;;5775843;28;20078;-79
2023/12/10 00:17:55;;;;;;;18.55;6.53;;;;;;;;;;5775915;28;20058;-79
2023/12/10 00:20:46;;;;;;;17.33;7.70;;;;;;;;;;5790991;28;20054;-79
2023/12/10 00:23:37;;;;;;;20.48;7.70;;;;;;;;;;5775747;28;20047;-79
2023/12/10 00:26:28;;;;;;;28.23;8.60;;;;;;;;;;5775318;28;20070;-79
2023/12/10 00:29:19;;;;;;;20.80;9.25;;;;;;;;;;5790232;28;20137;-79
2023/12/10 00:32:10;;;;;;;25.73;7.60;;;;;;;;;;5789994;28;20051;-79
2023/12/10 00:35:00;;;;;;;25.30;10.27;;;;;;;;;;5779478;28;20051;-79
2023/12/10 00:37:51;;;;;;;20.20;10.88;;;;;;;;;;5762273;28;20126;-80
2023/12/10 00:40:43;;;;;;;26.60;10.52;;;;;;;;;;5794039;28;20493;-79
2023/12/10 00:43:34;;;;;;;17.42;8.93;;;;;;;;;;5794992;28;20496;-79
2023/12/10 00:46:25;;;;;;;23.08;10.52;;;;;;;;;;5780456;28;20441;-79
2023/12/10 00:49:16;;;;;;;16.13;10.43;;;;;;;;;;5798430;28;20054;-79
2023/12/10 00:52:07;;;;;;;23.65;12.00;;;;;;;;;;5798322;28;20051;-80
2023/12/10 00:54:57;;;;;;;24.35;9.93;;;;;;;;;;5781721;28;20054;-80
2023/12/10 00:57:49;;;;;;;23.83;10.18;;;;;;;;;;5794551;28;20103;-80
2023/12/10 01:00:41;;;;;;;24.23;9.82;;;;;;;;;;5793325;28;20122;-79
2023/12/10 01:03:32;;;;;;;36.35;12.10;;;;;;;;;;5804862;28;20126;-80
2023/12/10 01:06:22;;;;;;;28.30;10.75;;;;;;;;;;5791836;28;20047;-80
2023/12/10 01:09:15;;;;;;;30.33;11.90;;;;;;;;;;5792219;28;20062;-80
2023/12/10 01:12:07;;;;;;;25.10;12.60;;;;;;;;;;5778180;28;20065;-79
2023/12/10 01:14:58;;;;;;;28.75;9.95;;;;;;;;;;5777887;28;20046;-79
2023/12/10 01:17:48;;;;;;;33.97;13.07;;;;;;;;;;5777456;28;20394;-79
2023/12/10 01:20:40;;;;;;;21.77;11.27;;;;;;;;;;5792145;28;20052;-80
2023/12/10 01:23:31;;;;;;;21.27;10.13;;;;;;;;;;5776187;28;20054;-79
2023/12/10 01:26:22;;;;;;;25.88;12.00;;;;;;;;;;5776046;28;20054;-80
2023/12/10 01:29:14;;;;;;;26.00;12.57;;;;;;;;;;5776128;28;20047;-80
2023/12/10 01:32:05;;;;;;;27.13;9.50;;;;;;;;;;5775559;28;20051;-80
2023/12/10 01:34:56;;;;;;;28.70;14.10;;;;;;;;;;5774401;28;20062;-79
2023/12/10 01:37:48;;;;;;;26.60;10.45;;;;;;;;;;5789339;28;20137;-80
2023/12/10 01:40:39;;;;;;;24.95;10.88;;;;;;;;;;5773119;28;20047;-81
2023/12/10 01:43:29;;;;;;;21.23;9.98;;;;;;;;;;5773221;28;20432;-81
2023/12/10 01:46:21;;;;;;;28.48;12.65;;;;;;;;;;5774439;28;20047;-81
2023/12/10 01:49:15;;;;;;;30.05;13.27;;;;;;;;;;5788348;28;20094;-78
2023/12/10 01:52:07;;;;;;;21.17;9.77;;;;;;;;;;5747356;28;1182276;-78
2023/12/10 01:55:01;;;;;;;25.02;10.85;;;;;;;;;;5757896;28;20445;-78
2023/12/10 01:57:52;;;;;;;21.90;10.85;;;;;;;;;;5789013;28;20039;-78
2023/12/10 02:00:44;;;;;;;22.50;10.48;;;;;;;;;;5774291;28;20055;-78
2023/12/10 02:03:35;;;;;;;20.67;8.80;;;;;;;;;;5757458;28;20039;-78
2023/12/10 02:06:26;;;;;;;21.00;9.77;;;;;;;;;;5772750;28;20047;-78
2023/12/10 02:09:18;;;;;;;20.45;7.85;;;;;;;;;;5774258;28;20535;-78
2023/12/10 02:12:09;;;;;;;26.50;8.68;;;;;;;;;;5774034;28;20463;-78
2023/12/10 02:15:13;;;;;;;25.40;9.85;;;;;;;;;;5772933;28;20097;-78
2023/12/10 02:18:04;;;;;;;15.82;8.93;;;;;;;;;;5788113;28;20409;-78
2023/12/10 02:20:56;;;;;;;20.48;9.00;;;;;;;;;;5772976;28;20102;-78
2023/12/10 02:23:57;;;;;;;23.45;7.85;;;;;;;;;;5772675;28;20054;-78
2023/12/10 02:26:48;;;;;;;18.13;8.38;;;;;;;;;;5772598;28;20074;-79
2023/12/10 02:29:39;;;;;;;28.13;9.57;;;;;;;;;;5772823;28;20043;-78
2023/12/10 02:32:30;;;;;;;25.90;8.90;;;;;;;;;;5774096;28;20047;-78
2023/12/10 02:35:22;;;;;;;21.20;8.55;;;;;;;;;;5772298;28;20101;-78
2023/12/10 02:38:13;;;;;;;23.65;9.73;;;;;;;;;;5788362;28;20834;-79
2023/12/10 02:41:05;;;;;;;18.40;7.40;;;;;;;;;;5772366;28;20501;-79
2023/12/10 02:43:56;;;;;;;21.00;9.30;;;;;;;;;;5773991;28;20057;-79
2023/12/10 02:46:50;;;;;;;18.95;8.57;;;;;;;;;;5772249;28;20390;-78
2023/12/10 02:49:41;;;;;;;18.75;9.98;;;;;;;;;;5772060;28;20047;-78
2023/12/10 02:52:36;;;;;;;16.60;8.02;;;;;;;;;;5787920;28;20389;-79
2023/12/10 02:55:26;;;;;;;22.42;9.48;;;;;;;;;;5772090;28;20047;-79
2023/12/10 02:58:17;;;;;;;17.50;6.78;;;;;;;;;;5773673;28;20074;-78
2023/12/10 03:01:08;;;;;;;22.42;8.65;;;;;;;;;;5771773;28;20051;-78
2023/12/10 03:03:59;;;;;;;20.50;8.95;;;;;;;;;;5787920;28;20421;-79
2023/12/10 03:06:50;;;;;;;22.85;8.90;;;;;;;;;;5772026;28;20516;-79
2023/12/10 03:09:42;;;;;;;16.55;8.40;;;;;;;;;;5787903;28;20047;-79
2023/12/10 03:12:33;;;;;;;21.40;8.95;;;;;;;;;;5773053;28;20047;-78
2023/12/10 03:15:24;;;;;;;19.65;9.75;;;;;;;;;;5774449;28;20055;-79
2023/12/10 03:18:15;;;;;;;19.40;6.88;;;;;;;;;;5788087;28;20065;-78
2023/12/10 03:21:06;;;;;;;15.77;7.78;;;;;;;;;;5771957;28;20054;-79
2023/12/10 03:23:57;;;;;;;18.85;8.48;;;;;;;;;;5789680;28;20047;-79
2023/12/10 03:26:48;;;;;;;16.48;8.70;;;;;;;;;;5774623;28;20055;-79
2023/12/10 03:29:38;;;;;;;19.15;7.97;;;;;;;;;;5788496;28;20054;-78
2023/12/10 03:32:30;;;;;;;11.75;6.90;;;;;;;;;;5788501;28;20051;-78
2023/12/10 03:35:22;;;;;;;21.70;7.82;;;;;;;;;;5773365;28;20485;-79
2023/12/10 03:38:12;;;;;;;15.05;7.93;;;;;;;;;;5773277;28;20378;-78
2023/12/10 03:41:03;;;;;;;17.50;9.10;;;;;;;;;;5788629;28;20055;-78
2023/12/10 03:43:54;;;;;;;18.33;9.73;;;;;;;;;;5773901;28;20047;-79
2023/12/10 03:46:45;;;;;;;29.27;8.55;;;;;;;;;;5790313;28;20523;-78
2023/12/10 03:49:36;;;;;;;23.23;8.52;;;;;;;;;;5772833;28;20066;-79
2023/12/10 03:52:27;;;;;;;21.05;8.65;;;;;;;;;;5772375;28;20047;-79
2023/12/10 03:55:18;;;;;;;22.20;8.38;;;;;;;;;;5787947;28;20051;-78
2023/12/10 03:58:09;;;;;;;16.05;8.30;;;;;;;;;;5775028;28;20134;-78
2023/12/10 04:01:00;;;;;;;18.58;8.43;;;;;;;;;;5774562;28;20055;-79
2023/12/10 04:03:51;;;;;;;17.63;8.65;;;;;;;;;;5774141;28;20071;-78
2023/12/10 04:06:42;;;;;;;11.13;8.45;;;;;;;;;;5775899;28;20047;-79
2023/12/10 04:09:33;;;;;;;23.00;9.85;;;;;;;;;;5792350;28;20528;-79
2023/12/10 04:12:24;;;;;;;15.32;7.45;;;;;;;;;;5776001;28;20047;-79
2023/12/10 04:15:15;;;;;;;13.35;7.13;;;;;;;;;;5775424;28;20061;-78
2023/12/10 04:18:06;;;;;;;17.30;8.30;;;;;;;;;;5774288;28;20134;-78
2023/12/10 04:20:57;;;;;;;17.05;7.95;;;;;;;;;;5774500;28;20178;-79
2023/12/10 04:23:48;;;;;;;22.90;10.10;;;;;;;;;;5775080;28;20069;-79
2023/12/10 04:26:39;;;;;;;14.77;7.85;;;;;;;;;;5789259;28;20058;-79
2023/12/10 04:29:30;;;;;;;21.75;7.75;;;;;;;;;;5773831;28;20435;-80
2023/12/10 04:32:20;;;;;;;13.85;7.32;;;;;;;;;;5790414;28;20057;-79
2023/12/10 04:35:12;;;;;;;17.35;8.27;;;;;;;;;;5773494;28;20078;-80
2023/12/10 04:38:02;;;;;;;13.98;6.90;;;;;;;;;;5774171;28;20394;-79
2023/12/10 04:40:53;;;;;;;16.55;7.32;;;;;;;;;;5773852;28;20637;-79
2023/12/10 04:43:44;;;;;;;14.60;6.65;;;;;;;;;;5788198;28;20051;-80
2023/12/10 04:46:35;;;;;;;10.95;6.95;;;;;;;;;;5773628;28;20047;-79
2023/12/10 04:49:26;;;;;;;12.70;6.22;;;;;;;;;;5775000;28;20047;-79
2023/12/10 04:52:17;;;;;;;9.82;6.10;;;;;;;;;;5775335;28;20062;-79
2023/12/10 04:55:08;;;;;;;17.20;5.55;;;;;;;;;;5775722;28;20058;-80
2023/12/10 04:57:59;;;;;;;12.80;5.45;;;;;;;;;;5774996;28;20055;-80
2023/12/10 05:00:51;;;;;;;14.07;5.68;;;;;;;;;;5772771;28;20043;-80
2023/12/10 05:03:42;;;;;;;9.15;5.53;;;;;;;;;;5775995;28;20050;-80
2023/12/10 05:06:33;;;;;;;12.52;5.70;;;;;;;;;;5774437;28;20055;-80
2023/12/10 05:09:24;;;;;;;8.35;4.47;;;;;;;;;;5776607;28;20449;-80
2023/12/10 05:12:15;;;;;;;14.20;6.18;;;;;;;;;;5776812;28;20059;-80
2023/12/10 05:15:06;;;;;;;13.20;6.05;;;;;;;;;;5773380;28;20505;-80
2023/12/10 05:18:02;;;;;;;18.52;6.80;;;;;;;;;;5790414;28;20053;-79
2023/12/10 05:20:53;;;;;;;20.60;7.55;;;;;;;;;;5774514;28;20099;-80
2023/12/10 05:23:44;;;;;;;11.88;5.82;;;;;;;;;;5773632;28;20043;-80
2023/12/10 05:26:35;;;;;;;14.70;7.03;;;;;;;;;;5777165;28;20047;-80
2023/12/10 05:29:26;;;;;;;9.10;6.13;;;;;;;;;;5796031;28;20047;-80
2023/12/10 05:32:17;;;;;;;18.67;6.95;;;;;;;;;;5797921;28;20086;-80
2023/12/10 05:35:08;;;;;;;40.85;17.27;;;;;;;;;;5781589;28;20070;-80
2023/12/10 05:37:59;;;;;;;29.48;12.40;;;;;;;;;;5785339;28;20055;-79
2023/12/10 05:40:50;;;;;;;18.50;8.27;;;;;;;;;;5785046;28;20051;-79
2023/12/10 05:43:41;;;;;;;13.63;5.78;;;;;;;;;;5779324;28;20047;-79
2023/12/10 05:46:32;;;;;;;15.27;5.68;;;;;;;;;;5779231;28;20039;-79
2023/12/10 05:49:23;;;;;;;13.95;7.72;;;;;;;;;;5777148;28;20053;-80
2023/12/10 05:52:14;;;;;;;15.13;9.05;;;;;;;;;;5777487;28;20379;-79
2023/12/10 05:55:06;;;;;;;16.15;7.75;;;;;;;;;;5778703;28;20497;-79
2023/12/10 05:57:56;;;;;;;14.95;6.72;;;;;;;;;;5794271;28;20049;-79
2023/12/10 06:00:47;;;;;;;17.13;7.47;;;;;;;;;;5779345;28;20047;-79
2023/12/10 06:03:38;;;;;;;12.27;6.95;;;;;;;;;;5792803;28;20140;-79
2023/12/10 06:06:29;;;;;;;10.85;4.88;;;;;;;;;;5777395;28;20047;-79
2023/12/10 06:09:20;;;;;;;11.05;5.35;;;;;;;;;;5777747;28;20047;-79
2023/12/10 06:12:11;;;;;;;13.57;6.45;;;;;;;;;;5793141;28;20055;-79
2023/12/10 06:15:02;;;;;;;12.80;7.55;;;;;;;;;;5778453;28;20062;-79
2023/12/10 06:17:52;;;;;;;9.02;5.22;;;;;;;;;;5777892;28;20067;-79
2023/12/10 06:20:43;;;;;;;11.07;5.47;;;;;;;;;;5777316;28;20106;-80
2023/12/10 06:23:34;;;;;;;6.78;5.03;;;;;;;;;;5778190;28;20047;-79
2023/12/10 06:26:25;;;;;;;10.65;5.57;;;;;;;;;;5778707;28;20043;-79
2023/12/10 06:29:16;;;;;;;16.38;6.28;;;;;;;;;;5782863;28;20059;-79
2023/12/10 06:32:06;;;;;;;8.18;5.40;;;;;;;;;;5779779;28;20134;-79
2023/12/10 06:34:58;;;;;;;5.93;4.65;;;;;;;;;;5780387;28;20124;-79
2023/12/10 06:37:49;;;;;;;9.02;5.93;;;;;;;;;;5777944;28;20054;-79
2023/12/10 06:40:40;;;;;;;12.98;5.57;;;;;;;;;;5777821;28;20421;-80
2023/12/10 06:43:31;;;;;;;18.13;8.75;;;;;;;;;;5778457;28;20050;-79
2023/12/10 06:46:22;;;;;;;12.45;5.93;;;;;;;;;;5784230;28;20047;-80
2023/12/10 06:49:13;;;;;;;12.75;6.25;;;;;;;;;;5783291;28;20051;-80
2023/12/10 06:52:04;;;;;;;22.35;9.68;;;;;;;;;;5779693;28;20937;-79
2023/12/10 06:54:55;;;;;;;24.02;7.78;;;;;;;;;;5780349;28;20404;-80
2023/12/10 06:57:50;;;;;;;11.45;6.88;;;;;;;;;;5779943;28;20058;-79
2023/12/10 07:00:40;;;;;;;18.60;7.75;;;;;;;;;;5776520;28;20171;-79
2023/12/10 07:03:31;;;;;;;21.17;12.10;;;;;;;;;;5793243;28;20067;-79
2023/12/10 07:06:23;;;;;;;31.38;9.90;;;;;;;;;;5778660;28;20043;-79
2023/12/10 07:09:13;;;;;;;17.73;7.85;;;;;;;;;;5777381;28;20055;-79
2023/12/10 07:12:05;;;;;;;8.82;5.03;;;;;;;;;;5770763;28;20051;-79
2023/12/10 07:14:56;;;;;;;10.43;5.80;;;;;;;;;;5778401;28;20129;-79
2023/12/10 07:17:47;;;;;;;11.90;5.35;;;;;;;;;;5760470;28;20066;-79
2023/12/10 07:20:38;;;;;;;15.55;6.43;;;;;;;;;;5777467;28;20053;-79
2023/12/10 07:23:29;;;;;;;14.88;6.97;;;;;;;;;;5792929;28;20663;-79
2023/12/10 07:26:24;;;;;;;16.77;8.40;;;;;;;;;;5776356;28;20066;-79
2023/12/10 07:29:15;;;;;;;16.83;6.93;;;;;;;;;;5793028;28;20390;-79
2023/12/10 07:32:06;;;;;;;18.35;9.52;;;;;;;;;;5777030;28;20062;-79
2023/12/10 07:34:57;;;;;;;39.08;13.35;;;;;;;;;;5794007;28;20073;-79
2023/12/10 07:37:48;;;;;;;22.35;9.15;;;;;;;;;;5792838;28;20450;-79
2023/12/10 07:40:39;;;;;;;14.63;7.45;;;;;;;;;;5776761;28;20083;-79
2023/12/10 07:43:30;;;;;;;12.05;8.25;;;;;;;;;;5777987;28;20058;-79
2023/12/10 07:46:21;;;;;;;13.40;6.40;;;;;;;;;;5793287;28;20154;-79
2023/12/10 07:49:12;;;;;;;15.40;6.13;;;;;;;;;;5777436;28;20106;-79
2023/12/10 07:52:03;;;;;;;9.60;5.85;;;;;;;;;;5784893;28;20078;-79
2023/12/10 07:54:54;;;;;;;9.48;5.60;;;;;;;;;;5791685;28;20512;-79
2023/12/10 07:57:45;;;;;;;15.38;5.45;;;;;;;;;;5776442;28;20057;-79
2023/12/10 08:00:36;;;;;;;5.65;3.80;;;;;;;;;;5776430;28;20152;-79
2023/12/10 08:03:27;;;;;;;17.15;5.90;;;;;;;;;;5774523;28;20058;-79
2023/12/10 08:06:19;;;;;;;15.95;5.18;;;;;;;;;;5774267;28;20050;-79
2023/12/10 08:09:10;;;;;;;7.07;4.40;;;;;;;;;;5775628;28;20067;-79
2023/12/10 08:12:00;;;;;;;8.68;4.90;;;;;;;;;;5792163;28;20055;-79
2023/12/10 08:14:51;;;;;;;9.27;4.35;;;;;;;;;;5777655;28;20043;-80
2023/12/10 08:17:42;;;;;;;12.80;5.47;;;;;;;;;;5777455;28;20489;-79
2023/12/10 08:20:33;;;;;;;5.35;3.95;;;;;;;;;;5775558;28;20051;-79
2023/12/10 08:23:24;;;;;;;5.22;4.07;;;;;;;;;;5775454;28;20047;-79
2023/12/10 08:26:15;;;;;;;10.18;4.93;;;;;;;;;;5775431;28;20051;-79
2023/12/10 08:29:06;;;;;;;9.90;5.85;;;;;;;;;;5776343;28;20055;-79
2023/12/10 08:31:57;;;;;;;10.02;5.65;;;;;;;;;;5774841;28;20047;-79
2023/12/10 08:34:48;;;;;;;8.88;6.25;;;;;;;;;;5774745;28;20063;-79
2023/12/10 08:37:39;;;;;;;9.65;6.38;;;;;;;;;;5774328;28;20141;-79
2023/12/10 08:40:30;;;;;;;14.88;7.65;;;;;;;;;;5792616;28;20058;-80
2023/12/10 08:43:20;;;;;;;10.30;6.57;;;;;;;;;;5792222;28;20054;-79
2023/12/10 08:46:11;;;;;;;10.80;6.25;;;;;;;;;;5775746;28;20051;-79
2023/12/10 08:49:02;;;;;;;10.07;5.63;;;;;;;;;;5776245;28;20047;-79
2023/12/10 08:51:53;;;;;;;10.98;4.18;;;;;;;;;;5776594;28;20141;-79
2023/12/10 08:54:44;;;;;;;10.40;4.90;;;;;;;;;;5776407;28;20501;-79
2023/12/10 08:57:35;;;;;;;5.82;4.78;;;;;;;;;;5786157;28;20047;-80
2023/12/10 09:00:26;;;;;;;13.85;4.32;;;;;;;;;;5777771;28;20054;-80
2023/12/10 09:03:17;;;;;;;15.68;5.63;;;;;;;;;;5778190;28;20058;-80
2023/12/10 09:06:09;;;;;;;10.05;4.50;;;;;;;;;;5793088;28;20149;-80
2023/12/10 09:08:59;;;;;;;15.10;4.35;;;;;;;;;;5802404;28;20054;-80
2023/12/10 09:11:50;;;;;;;4.63;3.03;;;;;;;;;;5813925;28;20046;-80
2023/12/10 09:14:41;;;;;;;5.88;4.20;;;;;;;;;;5823962;28;20042;-79
2023/12/10 09:17:32;;;;;;;6.85;4.30;;;;;;;;;;5810906;28;20523;-79
2023/12/10 09:20:23;;;;;;;4.93;3.75;;;;;;;;;;5813109;28;20050;-79
2023/12/10 09:23:14;;;;;;;8.57;3.78;;;;;;;;;;5824029;28;20057;-80
2023/12/10 09:26:05;;;;;;;9.32;4.22;;;;;;;;;;5824092;28;20054;-79
2023/12/10 09:28:56;;;;;;;9.65;5.85;;;;;;;;;;5826083;28;20496;-79
2023/12/10 09:31:47;;;;;;;11.48;8.82;;;;;;;;;;5824035;28;20043;-79
2023/12/10 09:34:39;;;;;;;24.38;10.90;;;;;;;;;;5806565;28;20499;-80
2023/12/10 09:37:30;;;;;;;29.77;11.75;;;;;;;;;;5823291;28;20046;-80
2023/12/10 09:40:21;;;;;;;18.15;9.82;;;;;;;;;;5815870;28;20066;-79
2023/12/10 09:43:11;;;;;;;10.30;6.15;;;;;;;;;;5821625;28;20046;-80
2023/12/10 09:46:03;;;;;;;17.42;6.38;;;;;;;;;;5820601;28;20050;-79
2023/12/10 09:48:55;;;;;;;11.30;6.13;;;;;;;;;;5818488;28;20042;-80
2023/12/10 09:51:46;;;;;;;12.10;6.70;;;;;;;;;;5805159;28;20208;-79
2023/12/10 09:54:41;;;;;;;16.63;7.32;;;;;;;;;;5834794;28;20050;-79
2023/12/10 09:57:32;;;;;;;10.73;7.07;;;;;;;;;;5819338;28;20042;-80
2023/12/10 10:00:25;;;;;;;12.27;5.70;;;;;;;;;;5832170;28;20382;-80
2023/12/10 10:03:18;;;;;;;8.75;6.10;;;;;;;;;;5819772;28;20566;-80
2023/12/10 10:06:09;;;;;;;11.85;8.25;;;;;;;;;;5820309;28;20133;-80
2023/12/10 10:09:00;;;;;;;11.25;8.15;;;;;;;;;;5835180;28;20142;-80
2023/12/10 10:11:51;;;;;;;13.82;6.82;;;;;;;;;;5834688;28;20420;-80
2023/12/10 10:14:55;;;;;;;12.25;6.20;;;;;;;;;;5818315;28;20419;-81
2023/12/10 10:17:47;;;;;;;14.15;7.53;;;;;;;;;;5817411;28;20046;-81
2023/12/10 10:20:41;;;;;;;7.30;5.75;;;;;;;;;;5818202;28;20057;-81
2023/12/10 10:23:32;;;;;;;5.30;3.80;;;;;;;;;;5817956;28;20407;-81
2023/12/10 10:26:23;;;;;;;11.18;5.45;;;;;;;;;;5830385;28;20046;-81
2023/12/10 10:29:14;;;;;;;15.45;7.60;;;;;;;;;;5801537;28;20054;-81
2023/12/10 10:32:05;;;;;;;13.13;7.65;;;;;;;;;;5828021;28;20058;-81
2023/12/10 10:34:58;;;;;;;35.97;14.00;;;;;;;;;;5819395;28;20042;-81
2023/12/10 10:37:50;;;;;;;10.35;6.45;;;;;;;;;;5817283;28;20053;-81
2023/12/10 10:40:41;;;;;;;11.90;6.70;;;;;;;;;;5832244;28;20057;-81
2023/12/10 10:43:31;;;;;;;11.20;4.80;;;;;;;;;;5833238;28;20053;-81
2023/12/10 10:46:24;;;;;;;17.58;6.75;;;;;;;;;;5818692;28;20050;-81
2023/12/10 10:49:15;;;;;;;10.05;6.05;;;;;;;;;;5818779;28;20054;-80
2023/12/10 10:52:12;;;;;;;11.90;5.55;;;;;;;;;;5833258;28;20050;-80
2023/12/10 10:55:04;;;;;;;10.63;6.57;;;;;;;;;;5817310;28;20047;-80
2023/12/10 10:57:55;;;;;;;13.40;6.35;;;;;;;;;;5819042;28;20050;-80
2023/12/10 11:00:46;;;;;;;6.07;4.72;;;;;;;;;;5832727;28;20511;-80
2023/12/10 11:03:37;;;;;;;6.20;3.88;;;;;;;;;;5815312;28;20057;-80
2023/12/10 11:06:28;;;;;;;9.45;4.47;;;;;;;;;;5814185;28;20443;-80
2023/12/10 11:09:20;;;;;;;20.67;4.43;;;;;;;;;;5818365;28;20181;-80
2023/12/10 11:12:39;;;;;;;9.20;4.03;;;;;;;;;;5833083;28;20054;-80
2023/12/10 11:15:31;;;;;;;9.02;4.30;;;;;;;;;;5816951;28;20132;-80
2023/12/10 11:18:22;;;;;;;6.60;4.13;;;;;;;;;;5818435;28;20053;-81
2023/12/10 11:21:12;;;;;;;5.78;4.38;;;;;;;;;;5818103;28;20054;-80
2023/12/10 11:24:04;;;;;;;9.93;5.93;;;;;;;;;;5817285;28;20427;-80
2023/12/10 11:26:55;;;;;;;6.13;4.22;;;;;;;;;;5825572;28;20038;-80
2023/12/10 11:29:45;;;;;;;19.35;8.73;;;;;;;;;;5832650;28;20069;-80
2023/12/10 11:32:36;;;;;;;15.13;7.40;;;;;;;;;;5817916;28;20057;-81
2023/12/10 11:35:27;;;;;;;17.75;10.50;;;;;;;;;;5817420;28;20049;-80
2023/12/10 11:38:18;;;;;;;20.33;6.75;;;;;;;;;;5816337;28;20050;-80
2023/12/10 11:41:09;;;;;;;13.88;5.75;;;;;;;;;;5827114;28;20519;-80
2023/12/10 11:43:59;;;;;;;12.10;6.32;;;;;;;;;;5832466;28;20058;-80
2023/12/10 11:46:50;;;;;;;14.02;7.20;;;;;;;;;;5800459;28;20416;-80
2023/12/10 11:49:43;;;;;;;12.73;6.88;;;;;;;;;;5815447;28;20141;-80
2023/12/10 11:52:34;;;;;;;11.55;6.30;;;;;;;;;;5814142;28;20137;-80
2023/12/10 11:55:26;;;;;;;10.80;5.95;;;;;;;;;;5815726;28;20053;-80
2023/12/10 11:58:26;;;;;;;10.00;7.32;;;;;;;;;;5816163;28;20059;-80
2023/12/10 12:01:18;;;;;;;9.73;7.03;;;;;;;;;;5815957;28;20428;-80
2023/12/10 12:04:09;;;;;;;8.63;7.78;;;;;;;;;;5815882;28;20116;-80
2023/12/10 12:06:59;;;;;;;18.75;10.75;;;;;;;;;;5816199;28;20054;-80
2023/12/10 12:09:52;;;;;;;28.40;14.82;;;;;;;;;;5799478;28;20125;-80
2023/12/10 12:12:47;;;;;;;32.38;15.93;;;;;;;;;;5815353;28;20046;-80
2023/12/10 12:15:43;;;;;;;35.53;15.40;;;;;;;;;;5816099;28;20583;-80
2023/12/10 12:18:34;;;;;;;42.80;19.13;;;;;;;;;;5815614;28;20546;-80
2023/12/10 12:21:25;;;;;;;49.55;19.20;;;;;;;;;;5815394;28;20069;-80
2023/12/10 12:24:16;;;;;;;21.48;9.32;;;;;;;;;;5799331;28;20081;-79
2023/12/10 12:27:07;;;;;;;12.68;7.80;;;;;;;;;;5831652;28;20077;-79
2023/12/10 12:29:58;;;;;;;16.45;7.82;;;;;;;;;;5825003;28;20154;-80
2023/12/10 12:32:49;;;;;;;8.30;5.93;;;;;;;;;;5815211;28;20064;-79
2023/12/10 12:35:40;;;;;;;12.75;5.32;;;;;;;;;;5818634;28;20042;-80
2023/12/10 12:38:31;;;;;;;11.80;6.15;;;;;;;;;;5836025;28;20047;-79
2023/12/10 12:41:21;;;;;;;7.72;5.38;;;;;;;;;;5803936;28;20049;-79
2023/12/10 12:44:13;;;;;;;6.82;4.55;;;;;;;;;;5814895;28;20057;-79
2023/12/10 12:47:04;;;;;;;15.48;4.72;;;;;;;;;;5815773;28;20535;-79
2023/12/10 12:49:55;;;;;;;4.28;3.88;;;;;;;;;;5796737;28;20385;-79
2023/12/10 12:52:46;;;;;;;8.35;6.82;;;;;;;;;;5795840;28;20065;-79
2023/12/10 12:55:40;;;;;;;14.02;6.82;;;;;;;;;;5796940;28;20054;-79
2023/12/10 12:58:31;;;;;;;13.00;6.28;;;;;;;;;;5796608;28;20042;-79
2023/12/10 13:01:22;;;;;;;6.38;3.78;;;;;;;;;;5796514;28;20042;-79
2023/12/10 13:04:13;;;;;;;5.60;3.90;;;;;;;;;;5799095;28;20521;-79
2023/12/10 13:07:04;;;;;;;11.55;4.93;;;;;;;;;;5798976;28;20074;-79
2023/12/10 13:09:55;;;;;;;7.50;5.75;;;;;;;;;;5796816;28;20050;-80
2023/12/10 13:12:47;;;;;;;7.75;5.53;;;;;;;;;;5795482;28;20097;-79
2023/12/10 13:15:39;;;;;;;6.75;5.03;;;;;;;;;;5796275;28;20054;-79
2023/12/10 13:18:30;;;;;;;10.60;3.90;;;;;;;;;;5795983;28;20097;-79
2023/12/10 13:21:21;;;;;;;7.10;3.58;;;;;;;;;;5796517;28;20062;-79
2023/12/10 13:24:17;;;;;;;8.73;4.13;;;;;;;;;;5796378;28;20587;-79
2023/12/10 13:27:08;;;;;;;9.90;4.63;;;;;;;;;;5796150;28;20051;-79
2023/12/10 13:29:59;;;;;;;7.45;4.93;;;;;;;;;;5789711;28;20073;-79
2023/12/10 13:32:49;;;;;;;7.75;3.92;;;;;;;;;;5797235;28;20089;-79
2023/12/10 13:35:41;;;;;;;5.45;3.85;;;;;;;;;;5795898;28;20497;-79
2023/12/10 13:38:31;;;;;;;7.75;4.25;;;;;;;;;;5795790;28;20043;-79
2023/12/10 13:41:24;;;;;;;24.23;17.23;;;;;;;;;;5795843;28;20424;-79
2023/12/10 13:44:15;;;;;;;24.52;11.02;;;;;;;;;;5795801;28;20583;-79
2023/12/10 13:47:08;;;;;;;18.40;6.38;;;;;;;;;;5795078;28;20129;-79
2023/12/10 13:50:00;;;;;;;32.92;13.07;;;;;;;;;;5780096;28;20423;-79
2023/12/10 13:52:51;;;;;;;10.00;5.65;;;;;;;;;;5795944;28;20078;-79
2023/12/10 13:55:42;;;;;;;8.93;6.57;;;;;;;;;;5795396;28;20047;-79
2023/12/10 13:58:33;;;;;;;17.15;7.45;;;;;;;;;;5796472;28;20050;-79
2023/12/10 14:01:24;;;;;;;5.90;3.88;;;;;;;;;;5795464;28;20077;-79
2023/12/10 14:04:15;;;;;;;15.70;10.80;;;;;;;;;;5795166;28;20126;-79
2023/12/10 14:07:06;;;;;;;13.85;7.22;;;;;;;;;;5796557;28;20051;-79
2023/12/10 14:09:57;;;;;;;6.63;3.20;;;;;;;;;;5795576;28;20125;-79
2023/12/10 14:12:48;;;;;;;3.72;3.05;;;;;;;;;;5794952;28;20413;-79
2023/12/10 14:15:39;;;;;;;5.90;3.97;;;;;;;;;;5794544;28;20065;-79
2023/12/10 14:18:30;;;;;;;4.88;3.67;;;;;;;;;;5796072;28;20079;-79
2023/12/10 14:21:21;;;;;;;8.00;4.22;;;;;;;;;;5794745;28;20054;-79
2023/12/10 14:24:21;;;;;;;7.88;4.60;;;;;;;;;;5794723;28;20093;-79
2023/12/10 14:27:13;;;;;;;11.18;4.65;;;;;;;;;;5795771;28;20073;-80
2023/12/10 14:30:05;;;;;;;5.65;3.45;;;;;;;;;;5794408;28;20051;-80
2023/12/10 14:32:56;;;;;;;3.65;2.40;;;;;;;;;;5796169;28;20054;-80
2023/12/10 14:35:46;;;;;;;7.63;4.47;;;;;;;;;;5794396;28;20042;-80
2023/12/10 14:38:37;;;;;;;6.05;2.92;;;;;;;;;;5794491;28;20039;-80
2023/12/10 14:41:28;;;;;;;4.07;2.67;;;;;;;;;;5794061;28;20043;-80
2023/12/10 14:44:19;;;;;;;3.92;2.08;;;;;;;;;;5795534;28;20445;-80
2023/12/10 14:47:10;;;;;;;4.13;2.90;;;;;;;;;;5795627;28;20050;-80
2023/12/10 14:50:00;;;;;;;1.75;1.63;;;;;;;;;;5794461;28;20050;-79
2023/12/10 14:52:51;;;;;;;2.53;2.15;;;;;;;;;;5778907;28;20420;-80
2023/12/10 14:55:44;;;;;;;3.35;3.03;;;;;;;;;;5795393;28;20054;-80
2023/12/10 14:58:35;;;;;;;8.10;3.40;;;;;;;;;;5793502;28;20477;-80
2023/12/10 15:01:26;;;;;;;6.15;3.45;;;;;;;;;;5795336;28;20047;-80
2023/12/10 15:04:17;;;;;;;8.43;3.65;;;;;;;;;;5794567;28;20055;-80
2023/12/10 15:07:10;;;;;;;7.90;2.80;;;;;;;;;;5794067;28;20055;-80
2023/12/10 15:10:01;;;;;;;9.80;4.30;;;;;;;;;;5794039;28;20047;-80
2023/12/10 15:12:52;;;;;;;13.20;3.53;;;;;;;;;;5795823;28;20079;-80
2023/12/10 15:15:44;;;;;;;5.30;2.78;;;;;;;;;;5793733;28;20128;-80
2023/12/10 15:18:34;;;;;;;4.07;3.03;;;;;;;;;;5795098;28;20405;-80
2023/12/10 15:21:25;;;;;;;6.20;3.55;;;;;;;;;;5793865;28;20046;-80
2023/12/10 15:24:16;;;;;;;6.03;2.72;;;;;;;;;;5794980;28;20129;-80
2023/12/10 15:27:07;;;;;;;3.38;3.08;;;;;;;;;;5793598;28;20055;-80
2023/12/10 15:29:58;;;;;;;7.80;4.40;;;;;;;;;;5787273;28;21180;-80
2023/12/10 15:32:49;;;;;;;6.20;4.53;;;;;;;;;;5793390;28;20382;-79
2023/12/10 15:35:41;;;;;;;9.48;4.57;;;;;;;;;;5794477;28;20047;-80
2023/12/10 15:38:32;;;;;;;15.77;7.95;;;;;;;;;;5793457;28;20053;-79
2023/12/10 15:41:23;;;;;;;4.70;3.65;;;;;;;;;;5789516;28;20043;-79
2023/12/10 15:44:14;;;;;;;13.65;3.95;;;;;;;;;;5809255;28;20061;-79
2023/12/10 15:47:05;;;;;;;6.25;3.22;;;;;;;;;;5793176;28;20066;-79
2023/12/10 15:49:55;;;;;;;5.80;3.95;;;;;;;;;;5793374;28;20504;-79
2023/12/10 15:52:46;;;;;;;3.83;3.03;;;;;;;;;;5793130;28;20493;-79
2023/12/10 15:55:37;;;;;;;17.45;4.45;;;;;;;;;;5793053;28;20069;-79
2023/12/10 15:58:28;;;;;;;4.90;4.18;;;;;;;;;;5794075;28;20058;-79
2023/12/10 16:01:22;;;;;;;5.78;4.35;;;;;;;;;;5792511;28;20055;-79
2023/12/10 16:04:13;;;;;;;5.85;4.55;;;;;;;;;;5762022;28;20051;-79
2023/12/10 16:07:04;;;;;;;5.00;3.25;;;;;;;;;;5792785;28;20225;-79
2023/12/10 16:09:55;;;;;;;7.55;3.25;;;;;;;;;;5794099;28;20042;-79
2023/12/10 16:12:46;;;;;;;5.93;4.47;;;;;;;;;;5794131;28;20047;-79
2023/12/10 16:15:37;;;;;;;8.00;4.10;;;;;;;;;;5794086;28;20046;-79
2023/12/10 16:18:28;;;;;;;7.57;3.97;;;;;;;;;;5793882;28;20365;-79
2023/12/10 16:21:19;;;;;;;7.38;3.85;;;;;;;;;;5792770;28;20133;-79
2023/12/10 16:24:09;;;;;;;6.40;3.85;;;;;;;;;;5794044;28;20476;-78
2023/12/10 16:27:00;;;;;;;7.72;3.13;;;;;;;;;;5794353;28;20423;-78
2023/12/10 16:29:51;;;;;;;4.10;3.05;;;;;;;;;;5794249;28;20049;-79
2023/12/10 16:32:42;;;;;;;5.43;3.83;;;;;;;;;;5792524;28;20051;-79
2023/12/10 16:35:33;;;;;;;5.53;3.45;;;;;;;;;;5792501;28;20039;-79
2023/12/10 16:38:24;;;;;;;5.60;5.05;;;;;;;;;;5776707;28;20050;-78
2023/12/10 16:41:14;;;;;;;5.35;2.92;;;;;;;;;;5793728;28;20069;-79
2023/12/10 16:44:05;;;;;;;2.95;2.72;;;;;;;;;;5793894;28;20059;-79
2023/12/10 16:46:57;;;;;;;8.20;3.72;;;;;;;;;;5792753;28;20047;-78
2023/12/10 16:49:48;;;;;;;2.70;2.50;;;;;;;;;;5793553;28;20043;-79
2023/12/10 16:52:40;;;;;;;3.70;3.10;;;;;;;;;;5792140;28;20117;-78
2023/12/10 16:55:31;;;;;;;7.60;4.22;;;;;;;;;;5793630;28;20039;-78